createdAt,value
2022-10-17T00:01:34.547Z,13.25
2022-10-17T00:04:00.229Z,13.26
2022-10-17T00:06:26.022Z,13.26
2022-10-17T00:08:51.696Z,13.27
2022-10-17T00:11:20.505Z,13.28
2022-10-17T00:13:49.176Z,13.29
2022-10-17T00:16:22.517Z,13.29
2022-10-17T00:18:48.181Z,13.30
2022-10-17T00:21:18.626Z,13.30
2022-10-17T00:23:45.230Z,13.26
2022-10-17T00:26:10.989Z,13.24
2022-10-17T00:28:36.783Z,13.18
2022-10-17T00:31:04.568Z,13.17
2022-10-17T00:33:31.462Z,13.14
2022-10-17T00:36:15.931Z,13.12
2022-10-17T00:38:43.361Z,13.08
2022-10-17T00:41:09.618Z,13.02
2022-10-17T00:44:02.593Z,12.98
2022-10-17T00:46:36.889Z,12.94
2022-10-17T00:49:06.753Z,12.93
2022-10-17T00:51:57.961Z,12.90
2022-10-17T00:54:29.531Z,12.86
2022-10-17T00:56:55.440Z,12.81
2022-10-17T00:59:22.571Z,12.74
2022-10-17T01:02:02.899Z,12.69
2022-10-17T01:04:28.613Z,12.63
2022-10-17T01:06:54.391Z,12.59
2022-10-17T01:09:20.280Z,12.55
2022-10-17T01:11:56.334Z,12.53
2022-10-17T01:14:32.149Z,12.50
2022-10-17T01:17:03.083Z,12.49
2022-10-17T01:20:06.531Z,12.47
2022-10-17T01:22:42.894Z,12.44
2022-10-17T01:25:19.126Z,12.43
2022-10-17T01:28:07.259Z,12.40
2022-10-17T01:30:58.635Z,12.38
2022-10-17T01:33:35.386Z,12.34
2022-10-17T01:36:10.362Z,12.30
2022-10-17T01:39:01.131Z,12.28
2022-10-17T01:41:49.557Z,12.25
2022-10-17T01:44:26.152Z,12.21
2022-10-17T01:46:57.728Z,12.19
2022-10-17T01:49:27.594Z,12.18
2022-10-17T01:52:21.131Z,12.14
2022-10-17T01:54:51.934Z,12.13
2022-10-17T01:57:26.105Z,12.11
2022-10-17T01:59:54.541Z,12.11
2022-10-17T02:02:21.156Z,12.10
2022-10-17T02:04:50.219Z,12.06
2022-10-17T02:07:16.285Z,12.03
2022-10-17T02:09:42.592Z,12.01
2022-10-17T02:12:26.649Z,11.97
2022-10-17T02:15:03.941Z,11.93
2022-10-17T02:18:07.102Z,11.92
2022-10-17T02:20:48.363Z,11.90
2022-10-17T02:23:32.883Z,11.88
2022-10-17T02:26:04.689Z,11.84
2022-10-17T02:28:43.794Z,11.82
2022-10-17T02:31:17.179Z,11.77
2022-10-17T02:33:53.281Z,11.74
2022-10-17T02:36:23.777Z,11.74
2022-10-17T02:38:52.969Z,11.72
2022-10-17T02:41:21.539Z,11.72
2022-10-17T02:43:49.124Z,11.68
2022-10-17T02:46:20.386Z,11.66
2022-10-17T02:49:00.713Z,11.65
2022-10-17T02:51:26.285Z,11.63
2022-10-17T02:54:12.076Z,11.63
2022-10-17T02:56:45.276Z,11.60
2022-10-17T02:59:16.757Z,11.58
2022-10-17T03:01:43.489Z,11.56
2022-10-17T03:04:13.949Z,11.56
2022-10-17T03:06:40.800Z,11.54
2022-10-17T03:09:07.312Z,11.52
2022-10-17T03:11:33.473Z,11.50
2022-10-17T03:13:59.241Z,11.48
2022-10-17T03:16:24.969Z,11.46
2022-10-17T03:18:50.633Z,11.41
2022-10-17T03:21:16.416Z,11.37
2022-10-17T03:23:42.086Z,11.34
2022-10-17T03:26:09.087Z,11.34
2022-10-17T03:28:34.831Z,11.33
2022-10-17T03:31:09.363Z,11.32
2022-10-17T03:33:36.533Z,11.33
2022-10-17T03:36:10.444Z,11.32
2022-10-17T03:38:36.627Z,11.28
2022-10-17T03:41:03.428Z,11.26
2022-10-17T03:43:29.652Z,11.24
2022-10-17T03:45:57.607Z,11.23
2022-10-17T03:48:23.914Z,11.20
2022-10-17T03:50:49.759Z,11.17
2022-10-17T03:53:15.734Z,11.14
2022-10-17T03:55:41.376Z,11.12
2022-10-17T03:58:07.177Z,11.10
2022-10-17T04:00:35.127Z,11.08
2022-10-17T04:03:00.821Z,11.10
2022-10-17T04:05:26.494Z,11.11
2022-10-17T04:07:52.148Z,11.09
2022-10-17T04:10:18.028Z,11.04
2022-10-17T04:12:43.768Z,11.02
2022-10-17T04:15:09.798Z,11.01
2022-10-17T04:17:38.034Z,11.00
2022-10-17T04:20:04.450Z,10.97
2022-10-17T04:22:30.344Z,10.94
2022-10-17T04:24:56.457Z,10.94
2022-10-17T04:27:22.116Z,10.95
2022-10-17T04:29:47.910Z,10.97
2022-10-17T04:32:14.323Z,10.96
2022-10-17T04:34:40.097Z,10.96
2022-10-17T04:37:05.852Z,10.96
2022-10-17T04:39:31.662Z,10.94
2022-10-17T04:41:57.329Z,10.93
2022-10-17T04:44:23.274Z,10.90
2022-10-17T04:46:48.942Z,10.90
2022-10-17T04:49:14.601Z,10.90
2022-10-17T04:51:40.367Z,10.90
2022-10-17T04:54:06.044Z,10.90
2022-10-17T04:56:31.717Z,10.90
2022-10-17T04:58:59.208Z,10.88
2022-10-17T05:01:26.154Z,10.89
2022-10-17T05:03:52.803Z,10.86
2022-10-17T05:06:21.230Z,10.85
2022-10-17T05:08:47.727Z,10.83
2022-10-17T05:11:22.294Z,10.83
2022-10-17T05:13:53.629Z,10.79
2022-10-17T05:16:20.257Z,10.75
2022-10-17T05:18:52.847Z,10.73
2022-10-17T05:21:19.898Z,10.71
2022-10-17T05:23:46.040Z,10.70
2022-10-17T05:26:11.980Z,10.69
2022-10-17T05:28:37.841Z,10.69
2022-10-17T05:31:05.054Z,10.70
2022-10-17T05:33:30.989Z,10.70
2022-10-17T05:35:57.243Z,10.70
2022-10-17T05:38:23.166Z,10.70
2022-10-17T05:40:49.016Z,10.71
2022-10-17T05:43:14.728Z,10.72
2022-10-17T05:45:40.700Z,10.75
2022-10-17T05:48:08.284Z,10.74
2022-10-17T05:50:34.620Z,10.73
2022-10-17T05:53:00.624Z,10.74
2022-10-17T05:55:26.741Z,10.74
2022-10-17T05:57:53.365Z,10.76
2022-10-17T06:00:20.708Z,10.76
2022-10-17T06:02:47.206Z,10.77
2022-10-17T06:05:13.963Z,10.80
2022-10-17T06:07:40.558Z,10.83
2022-10-17T06:10:06.823Z,10.89
2022-10-17T06:12:32.557Z,10.99
2022-10-17T06:14:58.260Z,11.12
2022-10-17T06:17:24.354Z,11.27
2022-10-17T06:19:50.039Z,11.41
2022-10-17T06:22:15.757Z,11.53
2022-10-17T06:24:41.818Z,11.66
2022-10-17T06:27:11.057Z,11.79
2022-10-17T06:29:40.556Z,11.89
2022-10-17T06:32:08.606Z,11.99
2022-10-17T06:34:36.874Z,12.10
2022-10-17T06:37:02.918Z,12.16
2022-10-17T06:39:33.014Z,12.23
2022-10-17T06:42:00.156Z,12.28
2022-10-17T06:44:29.828Z,12.36
2022-10-17T06:46:56.241Z,12.43
2022-10-17T06:49:22.122Z,12.49
2022-10-17T06:51:47.773Z,12.55
2022-10-17T06:54:13.517Z,12.63
2022-10-17T06:56:39.165Z,12.68
2022-10-17T06:59:04.823Z,12.78
2022-10-17T07:01:31.336Z,12.88
2022-10-17T07:03:57.338Z,12.98
2022-10-17T07:06:25.900Z,13.06
2022-10-17T07:08:51.994Z,13.13
2022-10-17T07:11:20.069Z,13.19
2022-10-17T07:13:46.309Z,13.26
2022-10-17T07:16:13.157Z,13.33
2022-10-17T07:18:39.343Z,13.41
2022-10-17T07:21:05.989Z,13.49
2022-10-17T07:23:33.530Z,13.57
2022-10-17T07:26:01.825Z,13.65
2022-10-17T07:28:28.131Z,13.71
2022-10-17T07:30:54.618Z,13.80
2022-10-17T07:33:20.887Z,13.86
2022-10-17T07:35:46.545Z,13.94
2022-10-17T07:38:12.192Z,14.00
2022-10-17T07:40:38.159Z,14.09
2022-10-17T07:43:03.813Z,14.21
2022-10-17T07:45:29.477Z,14.29
2022-10-17T07:47:56.944Z,14.42
2022-10-17T07:50:23.312Z,14.50
2022-10-17T07:52:49.003Z,14.63
2022-10-17T07:55:14.727Z,14.75
2022-10-17T07:57:40.443Z,14.87
2022-10-17T08:00:07.846Z,14.99
2022-10-17T08:02:33.536Z,15.12
2022-10-17T08:04:59.192Z,15.24
2022-10-17T08:07:29.142Z,15.34
2022-10-17T08:09:55.269Z,15.43
2022-10-17T08:12:21.240Z,15.53
2022-10-17T08:14:47.396Z,15.65
2022-10-17T08:17:13.146Z,15.76
2022-10-17T08:19:39.617Z,15.86
2022-10-17T08:22:06.201Z,16.01
2022-10-17T08:24:31.947Z,16.15
2022-10-17T08:26:57.683Z,16.28
2022-10-17T08:29:23.400Z,16.39
2022-10-17T08:31:52.410Z,16.52
2022-10-17T08:34:22.014Z,16.66
2022-10-17T08:36:47.684Z,16.76
2022-10-17T08:39:13.373Z,16.87
2022-10-17T08:41:54.753Z,16.99
2022-10-17T08:44:44.710Z,17.14
2022-10-17T08:47:14.771Z,17.29
2022-10-17T08:49:51.747Z,17.45
2022-10-17T08:52:38.137Z,17.60
2022-10-17T08:55:12.664Z,17.70
2022-10-17T08:57:38.416Z,17.79
2022-10-17T09:00:21.336Z,17.89
2022-10-17T09:03:13.797Z,17.98
2022-10-17T09:05:46.116Z,18.05
2022-10-17T09:08:34.952Z,18.17
2022-10-17T09:11:18.188Z,18.24
2022-10-17T09:13:59.047Z,18.32
2022-10-17T09:16:48.651Z,18.36
2022-10-17T09:19:17.434Z,18.41
2022-10-17T09:21:56.482Z,18.54
2022-10-17T09:24:43.657Z,18.63
2022-10-17T09:27:21.368Z,18.73
2022-10-17T09:29:49.741Z,18.83
2022-10-17T09:32:23.304Z,18.91
2022-10-17T09:34:49.033Z,19.01
2022-10-17T09:37:16.595Z,19.09
2022-10-17T09:39:43.562Z,19.19
2022-10-17T09:42:13.983Z,19.27
2022-10-17T09:44:55.137Z,19.38
2022-10-17T09:47:37.294Z,19.54
2022-10-17T09:50:03.322Z,19.60
2022-10-17T09:52:47.883Z,19.68
2022-10-17T09:55:33.807Z,19.74
2022-10-17T09:58:02.571Z,19.81
2022-10-17T10:00:41.729Z,19.88
2022-10-17T10:03:08.026Z,19.96
2022-10-17T10:05:33.681Z,20.06
2022-10-17T10:08:12.250Z,20.20
2022-10-17T10:10:42.256Z,20.33
2022-10-17T10:13:13.928Z,20.47
2022-10-17T10:15:42.243Z,20.57
2022-10-17T10:18:35.276Z,20.59
2022-10-17T10:21:15.154Z,20.67
2022-10-17T10:23:43.710Z,20.76
2022-10-17T10:26:31.310Z,20.92
2022-10-17T10:29:01.027Z,21.05
2022-10-17T10:31:39.117Z,21.19
2022-10-17T10:34:17.950Z,21.27
2022-10-17T10:36:56.220Z,21.31
2022-10-17T10:39:33.964Z,21.43
2022-10-17T10:42:02.948Z,21.55
2022-10-17T10:44:31.909Z,21.66
2022-10-17T10:47:21.422Z,21.71
2022-10-17T10:49:49.366Z,21.79
2022-10-17T10:52:27.947Z,21.91
2022-10-17T10:55:02.817Z,22.05
2022-10-17T10:57:32.646Z,22.16
2022-10-17T11:00:15.897Z,22.23
2022-10-17T11:03:17.263Z,22.30
2022-10-17T11:05:54.870Z,22.38
2022-10-17T11:08:30.574Z,22.46
2022-10-17T11:11:06.100Z,22.54
2022-10-17T11:14:05.498Z,22.56
2022-10-17T11:16:54.751Z,22.61
2022-10-17T11:19:32.386Z,22.68
2022-10-17T11:22:40.480Z,22.79
2022-10-17T11:25:31.133Z,22.79
2022-10-17T11:27:59.820Z,22.85
2022-10-17T11:33:19.581Z,22.91
2022-10-17T11:35:50.740Z,23.01
2022-10-17T11:38:44.108Z,23.14
2022-10-17T11:41:17.910Z,23.23
2022-10-17T11:43:53.386Z,23.34
2022-10-17T11:46:26.542Z,23.35
2022-10-17T11:49:12.399Z,23.41
2022-10-17T11:52:01.953Z,23.40
2022-10-17T11:54:55.464Z,23.43
2022-10-17T11:57:48.054Z,23.42
2022-10-17T12:00:40.806Z,23.36
2022-10-17T12:03:22.888Z,23.36
2022-10-17T12:05:52.453Z,23.36
2022-10-17T12:08:31.324Z,23.34
2022-10-17T12:11:04.368Z,23.27
2022-10-17T12:13:32.776Z,23.21
2022-10-17T12:16:21.123Z,23.19
2022-10-17T12:19:09.863Z,23.22
2022-10-17T12:21:59.172Z,23.24
2022-10-17T12:24:36.567Z,23.25
2022-10-17T12:27:22.475Z,23.27
2022-10-17T12:29:49.964Z,23.30
2022-10-17T12:32:16.093Z,23.35
2022-10-17T12:34:53.224Z,23.43
2022-10-17T12:37:59.531Z,23.48
2022-10-17T12:40:34.486Z,23.54
2022-10-17T12:43:29.220Z,23.55
2022-10-17T12:46:02.676Z,23.54
2022-10-17T12:48:37.408Z,23.61
2022-10-17T12:51:37.642Z,23.70
2022-10-17T12:54:15.882Z,23.67
2022-10-17T12:56:44.880Z,23.62
2022-10-17T12:59:21.221Z,23.57
2022-10-17T13:01:52.363Z,23.56
2022-10-17T13:04:19.356Z,23.54
2022-10-17T13:06:48.446Z,23.54
2022-10-17T13:09:24.136Z,23.52
2022-10-17T13:11:51.057Z,23.50
2022-10-17T13:14:20.281Z,23.50
2022-10-17T13:16:57.752Z,23.46
2022-10-17T13:19:26.563Z,23.43
2022-10-17T13:22:05.337Z,23.40
2022-10-17T13:24:37.950Z,23.35
2022-10-17T13:27:05.432Z,23.36
2022-10-17T13:29:32.207Z,23.34
2022-10-17T13:32:00.684Z,23.33
2022-10-17T13:34:27.457Z,23.40
2022-10-17T13:36:56.213Z,23.43
2022-10-17T13:39:38.296Z,23.45
2022-10-17T13:42:20.854Z,23.45
2022-10-17T13:44:46.920Z,23.45
2022-10-17T13:47:29.897Z,23.42
2022-10-17T13:49:57.480Z,23.40
2022-10-17T13:52:26.717Z,23.39
2022-10-17T13:54:53.328Z,23.41
2022-10-17T13:57:27.765Z,23.40
2022-10-17T14:00:08.564Z,23.43
2022-10-17T14:02:37.436Z,23.42
2022-10-17T14:05:18.290Z,23.39
2022-10-17T14:08:12.047Z,23.39
2022-10-17T14:10:39.923Z,23.36
2022-10-17T14:13:07.465Z,23.35
2022-10-17T14:15:35.949Z,23.39
2022-10-17T14:18:07.809Z,23.39
2022-10-17T14:23:42.694Z,23.26
2022-10-17T14:26:22.366Z,23.25
2022-10-17T14:29:19.588Z,23.26
2022-10-17T14:31:48.104Z,23.26
2022-10-17T14:34:25.802Z,23.22
2022-10-17T14:36:52.696Z,23.21
2022-10-17T14:39:22.419Z,23.19
2022-10-17T14:41:49.273Z,23.11
2022-10-17T14:44:31.251Z,23.07
2022-10-17T14:47:06.004Z,23.03
2022-10-17T14:49:38.061Z,23.00
2022-10-17T14:52:18.387Z,22.96
2022-10-17T14:54:47.198Z,22.93
2022-10-17T14:57:30.900Z,22.91
2022-10-17T14:59:57.170Z,22.90
2022-10-17T15:02:25.063Z,22.83
2022-10-17T15:04:51.502Z,22.77
2022-10-17T15:07:17.758Z,22.74
2022-10-17T15:09:46.331Z,22.73
2022-10-17T15:12:17.743Z,22.71
2022-10-17T15:14:44.261Z,22.67
2022-10-17T15:17:23.962Z,22.62
2022-10-17T15:19:49.890Z,22.60
2022-10-17T15:22:17.603Z,22.52
2022-10-17T15:24:45.501Z,22.48
2022-10-17T15:27:17.401Z,22.42
2022-10-17T15:29:43.898Z,22.38
2022-10-17T15:32:10.072Z,22.33
2022-10-17T15:34:35.869Z,22.26
2022-10-17T15:37:04.034Z,22.21
2022-10-17T15:39:29.700Z,22.16
2022-10-17T15:41:55.677Z,22.11
2022-10-17T15:44:21.847Z,22.01
2022-10-17T15:46:48.034Z,21.95
2022-10-17T15:49:17.259Z,21.89
2022-10-17T15:51:43.416Z,21.82
2022-10-17T15:54:09.138Z,21.73
2022-10-17T15:56:40.447Z,21.62
2022-10-17T15:59:14.482Z,21.51
2022-10-17T16:01:41.265Z,21.40
2022-10-17T16:04:11.867Z,21.33
2022-10-17T16:06:38.037Z,21.23
2022-10-17T16:09:04.226Z,21.10
2022-10-17T16:11:42.523Z,20.96
2022-10-17T16:14:13.707Z,20.84
2022-10-17T16:16:39.489Z,20.74
2022-10-17T16:19:05.363Z,20.61
2022-10-17T16:21:35.211Z,20.48
2022-10-17T16:24:01.309Z,20.33
2022-10-17T16:26:27.803Z,20.19
2022-10-17T16:28:54.606Z,20.04
2022-10-17T16:31:29.834Z,19.88
2022-10-17T16:33:57.392Z,19.73
2022-10-17T16:36:23.434Z,19.63
2022-10-17T16:38:50.773Z,19.50
2022-10-17T16:41:22.307Z,19.35
2022-10-17T16:43:49.523Z,19.20
2022-10-17T16:46:15.974Z,19.10
2022-10-17T16:48:43.071Z,18.96
2022-10-17T16:51:09.125Z,18.80
2022-10-17T16:53:39.149Z,18.67
2022-10-17T16:56:06.221Z,18.60
2022-10-17T16:58:31.944Z,18.55
2022-10-17T17:01:02.965Z,18.49
2022-10-17T17:03:29.173Z,18.39
2022-10-17T17:05:54.971Z,18.30
2022-10-17T17:08:20.784Z,18.24
2022-10-17T17:10:50.202Z,18.19
2022-10-17T17:13:16.768Z,18.11
2022-10-17T17:15:42.688Z,18.03
2022-10-17T17:18:09.833Z,17.96
2022-10-17T17:20:36.137Z,17.85
2022-10-17T17:23:01.853Z,17.75
2022-10-17T17:25:27.769Z,17.68
2022-10-17T17:27:53.466Z,17.62
2022-10-17T17:30:19.127Z,17.55
2022-10-17T17:32:44.776Z,17.47
2022-10-17T17:37:36.266Z,17.34
2022-10-17T17:40:01.964Z,17.26
2022-10-17T17:42:27.657Z,17.18
2022-10-17T17:44:53.377Z,17.10
2022-10-17T17:47:19.134Z,17.03
2022-10-17T17:49:44.817Z,16.97
2022-10-17T17:52:10.508Z,16.90
2022-10-17T17:54:39.996Z,16.83
2022-10-17T17:57:07.001Z,16.79
2022-10-17T17:59:32.735Z,16.77
2022-10-17T18:01:58.461Z,16.74
2022-10-17T18:04:24.147Z,16.71
2022-10-17T18:06:49.876Z,16.67
2022-10-17T18:09:15.526Z,16.61
2022-10-17T18:11:41.452Z,16.54
2022-10-17T18:14:11.122Z,16.46
2022-10-17T18:16:37.345Z,16.37
2022-10-17T18:19:06.728Z,16.33
2022-10-17T18:21:33.052Z,16.28
2022-10-17T18:23:59.427Z,16.23
2022-10-17T18:26:25.118Z,16.20
2022-10-17T18:28:50.941Z,16.17
2022-10-17T18:31:23.508Z,16.10
2022-10-17T18:33:56.986Z,16.04
2022-10-17T18:36:25.257Z,16.01
2022-10-17T18:38:51.951Z,15.98
2022-10-17T18:41:19.961Z,15.92
2022-10-17T18:43:47.580Z,15.85
2022-10-17T18:46:16.469Z,15.80
2022-10-17T18:48:43.761Z,15.74
2022-10-17T18:51:09.664Z,15.67
2022-10-17T18:53:42.279Z,15.64
2022-10-17T18:56:09.416Z,15.64
2022-10-17T18:58:36.542Z,15.62
2022-10-17T19:01:09.351Z,15.57
2022-10-17T19:03:35.723Z,15.53
2022-10-17T19:06:03.343Z,15.49
2022-10-17T19:08:29.643Z,15.43
2022-10-17T19:10:55.608Z,15.42
2022-10-17T19:13:21.742Z,15.39
2022-10-17T19:15:47.564Z,15.34
2022-10-17T19:18:13.264Z,15.34
2022-10-17T19:20:38.983Z,15.32
2022-10-17T19:23:04.694Z,15.27
2022-10-17T19:25:30.393Z,15.22
2022-10-17T19:27:57.057Z,15.19
2022-10-17T19:30:23.503Z,15.16
2022-10-17T19:32:49.190Z,15.13
2022-10-17T19:35:15.037Z,15.10
2022-10-17T19:37:40.750Z,15.07
2022-10-17T19:40:07.135Z,15.01
2022-10-17T19:42:34.323Z,14.96
2022-10-17T19:45:01.441Z,14.93
2022-10-17T19:47:27.767Z,14.89
2022-10-17T19:49:53.532Z,14.84
2022-10-17T19:52:19.307Z,14.82
2022-10-17T19:54:44.976Z,14.79
2022-10-17T19:57:10.793Z,14.76
2022-10-17T19:59:36.506Z,14.73
2022-10-17T20:02:02.330Z,14.71
2022-10-17T20:04:28.098Z,14.69
2022-10-17T20:06:58.950Z,14.64
2022-10-17T20:09:25.683Z,14.60
2022-10-17T20:11:51.381Z,14.55
2022-10-17T20:14:17.069Z,14.50
2022-10-17T20:16:44.047Z,14.46
2022-10-17T20:19:11.695Z,14.41
2022-10-17T20:21:38.759Z,14.38
2022-10-17T20:24:07.098Z,14.38
2022-10-17T20:26:38.032Z,14.36
2022-10-17T20:29:13.568Z,14.34
2022-10-17T20:31:41.032Z,14.31
2022-10-17T20:34:07.177Z,14.32
2022-10-17T20:36:35.957Z,14.33
2022-10-17T20:39:01.975Z,14.32
2022-10-17T20:41:27.650Z,14.32
2022-10-17T20:43:54.373Z,14.31
2022-10-17T20:46:35.502Z,14.28
2022-10-17T20:49:03.499Z,14.26
2022-10-17T20:51:29.186Z,14.25
2022-10-17T20:53:54.826Z,14.23
2022-10-17T20:56:26.171Z,14.21
2022-10-17T20:58:54.207Z,14.21
2022-10-17T21:01:20.221Z,14.17
2022-10-17T21:03:46.678Z,14.13
2022-10-17T21:06:13.212Z,14.12
2022-10-17T21:08:39.287Z,14.10
2022-10-17T21:11:21.122Z,14.08
2022-10-17T21:13:52.408Z,14.05
2022-10-17T21:16:18.373Z,14.04
2022-10-17T21:18:44.952Z,13.99
2022-10-17T21:21:18.985Z,13.95
2022-10-17T21:23:46.494Z,13.93
2022-10-17T21:26:12.803Z,13.89
2022-10-17T21:28:39.356Z,13.84
2022-10-17T21:31:14.716Z,13.82
2022-10-17T21:33:41.604Z,13.81
2022-10-17T21:36:08.636Z,13.80
2022-10-17T21:38:36.552Z,13.76
2022-10-17T21:41:04.196Z,13.74
2022-10-17T21:43:30.056Z,13.70
2022-10-17T21:45:55.734Z,13.69
2022-10-17T21:48:21.442Z,13.68
2022-10-17T21:50:47.394Z,13.65
2022-10-17T21:53:13.074Z,13.60
2022-10-17T21:55:38.771Z,13.58
2022-10-17T21:58:04.584Z,13.55
2022-10-17T22:00:30.318Z,13.54
2022-10-17T22:02:56.102Z,13.49
2022-10-17T22:05:21.999Z,13.46
2022-10-17T22:07:47.686Z,13.44
2022-10-17T22:10:13.526Z,13.44
2022-10-17T22:12:39.224Z,13.42
2022-10-17T22:15:05.462Z,13.40
2022-10-17T22:17:31.488Z,13.39
2022-10-17T22:19:57.371Z,13.37
2022-10-17T22:22:23.078Z,13.35
2022-10-17T22:24:48.796Z,13.31
2022-10-17T22:27:14.760Z,13.26
2022-10-17T22:29:40.555Z,13.24
2022-10-17T22:32:06.257Z,13.23
2022-10-17T22:34:32.156Z,13.17
2022-10-17T22:36:57.832Z,13.14
2022-10-17T22:39:23.530Z,13.13
2022-10-17T22:41:49.179Z,13.14
2022-10-17T22:44:14.831Z,13.13
2022-10-17T22:46:40.542Z,13.13
2022-10-17T22:49:06.213Z,13.12
2022-10-17T22:51:32.014Z,13.08
2022-10-17T22:53:57.705Z,13.06
2022-10-17T22:56:23.379Z,13.02
2022-10-17T22:58:49.099Z,13.01
2022-10-17T23:01:19.261Z,12.99
2022-10-17T23:03:45.580Z,13.00
2022-10-17T23:06:12.079Z,12.99
2022-10-17T23:08:38.596Z,13.00
2022-10-17T23:11:05.128Z,13.00
2022-10-17T23:13:30.788Z,13.01
2022-10-17T23:15:56.665Z,13.02
2022-10-17T23:18:24.355Z,12.99
2022-10-17T23:20:50.550Z,12.95
2022-10-17T23:23:17.296Z,12.90
2022-10-17T23:25:43.132Z,12.89
2022-10-17T23:28:09.718Z,12.89
2022-10-17T23:30:36.176Z,12.88
2022-10-17T23:33:02.314Z,12.86
2022-10-17T23:35:28.515Z,12.83
2022-10-17T23:37:54.214Z,12.84
2022-10-17T23:40:19.912Z,12.83
2022-10-17T23:42:45.986Z,12.82
2022-10-17T23:45:12.378Z,12.80
2022-10-17T23:47:38.976Z,12.77
2022-10-17T23:50:05.764Z,12.76
2022-10-17T23:52:31.565Z,12.74
2022-10-17T23:54:57.370Z,12.71
2022-10-17T23:57:23.049Z,12.69
2022-10-17T23:59:48.903Z,12.70
